createdAt,value
2018-01-22T05:00:30.609Z,2.44
2018-01-22T05:00:56.102Z,2.57
2018-01-22T05:01:21.590Z,2.56
2018-01-22T05:01:47.077Z,2.62
2018-01-22T05:02:12.536Z,2.6
2018-01-22T05:02:38.047Z,2.56
2018-01-22T05:03:03.530Z,2.56
2018-01-22T05:03:29.033Z,2.53
2018-01-22T05:03:54.516Z,2.6
2018-01-22T05:04:20.016Z,2.53
2018-01-22T05:04:45.491Z,2.6
2018-01-22T05:05:11.010Z,2.62
2018-01-22T05:05:36.516Z,2.67
2018-01-22T05:06:45.236Z,2.6
2018-01-22T05:07:10.718Z,2.57
2018-01-22T05:07:36.222Z,2.57
2018-01-22T05:08:01.704Z,2.56
2018-01-22T05:08:27.199Z,2.64
2018-01-22T05:08:52.685Z,2.56
2018-01-22T05:09:18.169Z,2.64
2018-01-22T05:09:43.642Z,2.64
2018-01-22T05:10:09.125Z,2.68
2018-01-22T05:10:34.593Z,2.6
2018-01-22T05:11:00.079Z,2.56
2018-01-22T05:11:25.586Z,2.56
2018-01-22T05:11:51.068Z,2.71
2018-01-22T05:13:00.742Z,2.64
2018-01-22T05:13:26.229Z,2.61
2018-01-22T05:13:51.711Z,2.61
2018-01-22T05:14:17.244Z,2.57
2018-01-22T05:14:42.746Z,2.57
2018-01-22T05:15:08.223Z,2.6
2018-01-22T05:16:06.730Z,2.65
2018-01-22T05:16:32.240Z,2.6
2018-01-22T05:16:57.719Z,2.62
2018-01-22T05:17:23.192Z,2.61
2018-01-22T05:18:31.828Z,2.57
2018-01-22T05:18:57.317Z,2.62
2018-01-22T05:19:22.796Z,2.61
2018-01-22T05:19:48.285Z,2.6
2018-01-22T05:20:13.842Z,2.62
2018-01-22T05:20:39.314Z,2.64
2018-01-22T05:21:32.766Z,2.61
2018-01-22T05:21:58.344Z,2.6
2018-01-22T05:22:23.819Z,2.64
2018-01-22T05:22:49.348Z,2.6
2018-01-22T05:23:15.220Z,2.6
2018-01-22T05:23:40.742Z,2.61
2018-01-22T05:24:06.244Z,2.6
2018-01-22T05:24:31.837Z,2.62
2018-01-22T05:24:57.309Z,2.62
2018-01-22T05:25:22.809Z,2.61
2018-01-22T05:25:48.390Z,2.65
2018-01-22T05:26:13.993Z,2.61
2018-01-22T05:26:39.483Z,2.62
2018-01-22T05:27:04.936Z,2.54
2018-01-22T05:27:30.411Z,2.62
2018-01-22T05:27:55.888Z,2.62
2018-01-22T05:28:21.326Z,2.61
2018-01-22T05:28:46.812Z,2.61
2018-01-22T05:29:12.272Z,2.62
2018-01-22T05:29:37.790Z,2.64
2018-01-22T05:30:03.208Z,2.65
2018-01-22T05:31:06.790Z,2.62
2018-01-22T05:31:32.280Z,2.6
2018-01-22T05:31:57.755Z,2.6
2018-01-22T05:32:23.321Z,2.64
2018-01-22T05:32:48.782Z,2.64
2018-01-22T05:33:14.249Z,2.68
2018-01-22T05:33:39.697Z,2.64
2018-01-22T05:34:05.223Z,2.68
2018-01-22T05:34:30.680Z,2.64
2018-01-22T05:34:56.194Z,2.57
2018-01-22T05:35:21.662Z,2.68
2018-01-22T05:35:47.118Z,2.64
2018-01-22T05:36:35.430Z,2.68
2018-01-22T05:37:00.898Z,2.67
2018-01-22T05:37:26.378Z,2.67
2018-01-22T05:37:51.843Z,2.71
2018-01-22T05:38:17.305Z,2.69
2018-01-22T05:38:42.780Z,2.68
2018-01-22T05:39:08.253Z,2.65
2018-01-22T05:39:33.735Z,2.67
2018-01-22T05:40:32.231Z,2.71
2018-01-22T05:40:57.743Z,2.74
2018-01-22T05:41:23.217Z,2.77
2018-01-22T05:41:48.702Z,2.67
2018-01-22T05:42:14.217Z,2.75
2018-01-22T05:42:39.700Z,2.74
2018-01-22T05:43:05.150Z,2.79
2018-01-22T05:43:30.596Z,2.74
2018-01-22T05:43:56.102Z,2.74
2018-01-22T05:44:21.575Z,2.72
2018-01-22T05:44:47.211Z,2.72
2018-01-22T05:45:12.679Z,2.71
2018-01-22T05:45:38.164Z,2.79
2018-01-22T05:46:03.675Z,2.71
2018-01-22T05:46:29.167Z,2.71
2018-01-22T05:46:54.657Z,2.74
2018-01-22T05:47:20.153Z,2.8
2018-01-22T05:47:45.659Z,2.71
2018-01-22T05:48:11.154Z,2.83
2018-01-22T05:48:36.654Z,2.83
2018-01-22T05:49:30.063Z,2.79
2018-01-22T05:49:55.551Z,2.69
2018-01-22T05:50:21.071Z,2.82
2018-01-22T05:50:46.624Z,2.8
2018-01-22T05:51:26.377Z,2.75
2018-01-22T05:51:54.562Z,2.72
2018-01-22T05:52:25.376Z,2.71
2018-01-22T05:52:55.373Z,2.79
2018-01-22T05:53:24.459Z,2.75
2018-01-22T05:53:53.369Z,2.79
2018-01-22T05:54:23.416Z,2.79
2018-01-22T05:54:52.095Z,2.85
2018-01-22T05:55:19.877Z,2.79
2018-01-22T05:55:47.870Z,2.85
2018-01-22T05:56:13.392Z,2.77
2018-01-22T05:56:38.867Z,2.83
2018-01-22T05:57:04.333Z,2.8
2018-01-22T05:57:29.834Z,2.8
2018-01-22T05:57:55.336Z,2.74
2018-01-22T05:58:20.832Z,2.75
2018-01-22T05:58:46.325Z,2.8
2018-01-22T05:59:11.821Z,2.83
2018-01-22T05:59:37.285Z,2.75
2018-01-22T06:00:02.799Z,2.75
2018-01-22T06:00:28.269Z,2.79
2018-01-22T06:00:53.755Z,2.74
2018-01-22T06:01:19.280Z,2.79
2018-01-22T06:01:44.765Z,2.8
2018-01-22T06:02:10.216Z,2.8
2018-01-22T06:02:35.693Z,2.8
2018-01-22T06:03:01.174Z,2.8
2018-01-22T06:03:26.659Z,2.8
2018-01-22T06:03:52.140Z,2.79
2018-01-22T06:04:45.563Z,2.79
2018-01-22T06:05:11.052Z,2.74
2018-01-22T06:05:36.543Z,2.82
2018-01-22T06:06:02.034Z,2.83
2018-01-22T06:06:27.560Z,2.85
2018-01-22T06:06:53.042Z,2.82
2018-01-22T06:07:20.737Z,2.8
2018-01-22T06:07:47.079Z,2.83
2018-01-22T06:08:12.486Z,2.83
2018-01-22T06:08:38.098Z,2.83
2018-01-22T06:09:03.590Z,2.72
2018-01-22T06:09:29.068Z,2.83
2018-01-22T06:09:54.553Z,2.82
2018-01-22T06:10:20.014Z,2.85
2018-01-22T06:10:45.529Z,2.75
2018-01-22T06:11:11.016Z,2.82
2018-01-22T06:12:15.211Z,2.77
2018-01-22T06:12:40.724Z,2.85
2018-01-22T06:13:06.289Z,2.8
2018-01-22T06:13:31.668Z,2.83
2018-01-22T06:13:57.222Z,2.85
2018-01-22T06:14:22.762Z,2.83
2018-01-22T06:14:48.356Z,2.82
2018-01-22T06:15:13.881Z,2.85
2018-01-22T06:15:39.306Z,2.77
2018-01-22T06:16:04.776Z,2.87
2018-01-22T06:16:30.233Z,2.83
2018-01-22T06:17:23.729Z,2.83
2018-01-22T06:17:49.148Z,2.87
2018-01-22T06:18:14.614Z,2.87
2018-01-22T06:18:40.082Z,2.9
2018-01-22T06:19:05.638Z,2.9
2018-01-22T06:19:31.109Z,2.92
2018-01-22T06:19:56.625Z,2.9
2018-01-22T06:20:22.218Z,2.9
2018-01-22T06:20:47.678Z,2.86
2018-01-22T06:21:13.242Z,2.9
2018-01-22T06:22:01.537Z,2.89
2018-01-22T06:22:27.014Z,2.89
2018-01-22T06:22:52.480Z,2.9
2018-01-22T06:23:17.956Z,2.89
2018-01-22T06:23:43.497Z,2.92
2018-01-22T06:24:08.958Z,2.92
2018-01-22T06:24:34.476Z,2.95
2018-01-22T06:24:59.934Z,2.93
2018-01-22T06:25:53.408Z,2.9
2018-01-22T06:26:18.916Z,2.9
2018-01-22T06:26:44.420Z,2.9
2018-01-22T06:27:09.895Z,2.9
2018-01-22T06:28:08.441Z,2.93
2018-01-22T06:28:33.946Z,2.93
2018-01-22T06:28:59.433Z,2.92
2018-01-22T06:29:24.925Z,2.93
2018-01-22T06:29:50.483Z,2.95
2018-01-22T06:30:15.897Z,2.86
2018-01-22T06:30:41.383Z,2.9
2018-01-22T06:31:06.862Z,2.89
2018-01-22T06:31:32.356Z,2.93
2018-01-22T06:31:57.842Z,2.92
2018-01-22T06:32:51.296Z,2.93
2018-01-22T06:33:16.770Z,2.92
2018-01-22T06:33:42.258Z,2.92
2018-01-22T06:34:07.777Z,2.95
2018-01-22T06:34:33.239Z,2.89
2018-01-22T06:34:58.809Z,2.92
2018-01-22T06:35:24.519Z,2.95
2018-01-22T06:35:50.001Z,2.98
2018-01-22T06:36:15.577Z,3.04
2018-01-22T06:36:41.130Z,3.04
2018-01-22T06:37:06.622Z,3.03
2018-01-22T06:37:32.120Z,2.92
2018-01-22T06:37:57.609Z,3.03
2018-01-22T06:38:23.164Z,3.01
2018-01-22T06:38:48.681Z,3
2018-01-22T06:39:14.145Z,3.05
2018-01-22T06:39:39.646Z,3
2018-01-22T06:40:05.123Z,3.04
2018-01-22T06:40:30.624Z,2.98
2018-01-22T06:41:24.380Z,3.01
2018-01-22T06:41:49.894Z,3.03
2018-01-22T06:42:15.512Z,3.05
2018-01-22T06:42:41.142Z,3.03
2018-01-22T06:43:06.668Z,3.03
2018-01-22T06:43:32.146Z,3
2018-01-22T06:43:57.621Z,3.03
2018-01-22T06:44:23.121Z,2.98
2018-01-22T06:44:48.588Z,3.01
2018-01-22T06:45:14.089Z,3.03
2018-01-22T06:46:22.762Z,3.08
2018-01-22T06:46:48.260Z,3.05
2018-01-22T06:47:13.820Z,3.07
2018-01-22T06:48:12.333Z,3.07
2018-01-22T06:48:37.892Z,3.04
2018-01-22T06:49:31.358Z,3.08
2018-01-22T06:49:56.856Z,3.07
2018-01-22T06:50:22.338Z,3.08
2018-01-22T06:51:31.620Z,3.05
2018-01-22T06:51:57.110Z,3.01
2018-01-22T06:52:22.598Z,3.05
2018-01-22T06:52:48.099Z,3.05
2018-01-22T06:53:13.569Z,2.97
2018-01-22T06:53:39.021Z,3.1
2018-01-22T06:54:28.084Z,3.07
2018-01-22T06:54:53.570Z,3.07
2018-01-22T06:55:19.055Z,3.07
2018-01-22T06:55:44.542Z,3.1
2018-01-22T06:56:10.069Z,3.04
2018-01-22T06:56:35.529Z,3.04
2018-01-22T06:57:39.114Z,3.08
2018-01-22T06:58:04.615Z,3.05
2018-01-22T06:58:30.101Z,3.11
2018-01-22T06:58:55.604Z,3.03
2018-01-22T06:59:21.222Z,3.07
2018-01-22T06:59:46.701Z,3.05
2018-01-22T07:00:12.173Z,3.04
2018-01-22T07:00:37.639Z,3.04
2018-01-22T07:01:03.195Z,3.03
2018-01-22T07:02:07.814Z,3.07
2018-01-22T07:02:33.303Z,3.05
2018-01-22T07:02:58.891Z,3.08
2018-01-22T07:03:24.392Z,3.08
2018-01-22T07:03:49.856Z,3.07
2018-01-22T07:04:48.372Z,3.1
2018-01-22T07:05:13.863Z,3.1
2018-01-22T07:05:39.436Z,3.1
2018-01-22T07:06:04.902Z,3.11
2018-01-22T07:06:30.369Z,3.13
2018-01-22T07:07:34.248Z,3.04
2018-01-22T07:07:59.694Z,3.08
2018-01-22T07:08:25.203Z,3.13
2018-01-22T07:08:50.709Z,3.11
2018-01-22T07:09:59.373Z,3.04
2018-01-22T07:10:57.874Z,3.16
2018-01-22T07:11:23.378Z,3.21
2018-01-22T07:11:48.826Z,3.03
2018-01-22T07:12:14.385Z,3.08
2018-01-22T07:12:39.890Z,3.18
2018-01-22T07:13:05.393Z,3.1
2018-01-22T07:14:03.973Z,3.11
2018-01-22T07:14:29.493Z,3.16
2018-01-22T07:14:55.015Z,3.14
2018-01-22T07:15:20.464Z,3.18
2018-01-22T07:16:08.746Z,3.18
2018-01-22T07:16:34.220Z,3.21
2018-01-22T07:16:59.709Z,3.22
2018-01-22T07:17:25.344Z,3.14
2018-01-22T07:17:51.004Z,3.16
2018-01-22T07:18:16.509Z,3.18
2018-01-22T07:18:42.041Z,3.19
2018-01-22T07:19:07.525Z,3.22
2018-01-22T07:19:32.994Z,3.16
2018-01-22T07:19:58.632Z,3.13
2018-01-22T07:20:24.123Z,3.14
2018-01-22T07:20:49.623Z,3.16
2018-01-22T07:21:15.172Z,3.18
2018-01-22T07:21:40.670Z,3.19
2018-01-22T07:22:06.117Z,3.14
2018-01-22T07:22:31.599Z,3.16
2018-01-22T07:22:57.121Z,3.16
2018-01-22T07:23:22.603Z,3.19
2018-01-22T07:23:48.090Z,3.14
2018-01-22T07:24:13.576Z,3.19
2018-01-22T07:24:39.067Z,3.1
2018-01-22T07:25:04.601Z,3.23
2018-01-22T07:25:30.068Z,3.11
2018-01-22T07:26:33.672Z,3.23
2018-01-22T07:26:59.145Z,3.23
2018-01-22T07:27:24.623Z,3.23
2018-01-22T07:27:50.113Z,3.25
2018-01-22T07:28:15.593Z,3.28
2018-01-22T07:28:41.084Z,3.21
2018-01-22T07:29:29.368Z,3.25
2018-01-22T07:29:54.839Z,3.25
2018-01-22T07:30:20.329Z,3.25
2018-01-22T07:30:45.804Z,3.23
2018-01-22T07:31:11.278Z,3.23
2018-01-22T07:31:36.789Z,3.22
2018-01-22T07:32:02.283Z,3.28
2018-01-22T07:32:50.600Z,3.23
2018-01-22T07:33:16.084Z,3.29
2018-01-22T07:33:41.597Z,3.22
2018-01-22T07:34:07.104Z,3.23
2018-01-22T07:35:15.778Z,3.28
2018-01-22T07:35:41.279Z,3.25
2018-01-22T07:36:06.778Z,3.34
2018-01-22T07:36:32.256Z,3.23
2018-01-22T07:37:30.777Z,3.26
2018-01-22T07:37:56.252Z,3.34
2018-01-22T07:38:21.766Z,3.37
2018-01-22T07:38:47.274Z,3.32
2018-01-22T07:39:12.756Z,3.4
2018-01-22T07:39:38.248Z,3.36
2018-01-22T07:40:03.748Z,3.41
2018-01-22T07:40:29.312Z,3.37
2018-01-22T07:40:54.857Z,3.37
2018-01-22T07:41:20.347Z,3.22
2018-01-22T07:41:45.838Z,3.36
2018-01-22T07:42:11.380Z,3.32
2018-01-22T07:42:36.856Z,3.34
2018-01-22T07:43:02.311Z,3.32
2018-01-22T07:43:27.805Z,3.34
2018-01-22T07:43:53.309Z,3.31
2018-01-22T07:44:18.870Z,3.31
2018-01-22T07:44:44.288Z,3.4
2018-01-22T07:45:09.776Z,3.29
2018-01-22T07:45:35.255Z,3.34
2018-01-22T07:46:00.764Z,3.32
2018-01-22T07:46:26.248Z,3.29
2018-01-22T07:46:51.793Z,3.31
2018-01-22T07:47:17.310Z,3.29
2018-01-22T07:47:42.778Z,3.31
2018-01-22T07:48:08.327Z,3.36
2018-01-22T07:48:33.865Z,3.34
2018-01-22T07:48:59.370Z,3.4
2018-01-22T07:49:24.981Z,3.32
2018-01-22T07:49:50.491Z,3.29
2018-01-22T07:50:16.016Z,3.41
2018-01-22T07:50:41.492Z,3.36
2018-01-22T07:51:07.002Z,3.32
2018-01-22T07:51:32.529Z,3.32
2018-01-22T07:51:58.010Z,3.32
2018-01-22T07:52:23.498Z,3.31
2018-01-22T07:52:48.961Z,3.25
2018-01-22T07:53:14.488Z,3.25
2018-01-22T07:53:39.970Z,3.37
2018-01-22T07:54:05.458Z,3.36
2018-01-22T07:54:30.964Z,3.29
2018-01-22T07:54:56.419Z,3.36
2018-01-22T07:55:21.891Z,3.36
2018-01-22T07:55:47.389Z,3.4
2018-01-22T07:56:12.872Z,3.34
2018-01-22T07:56:38.402Z,3.42
2018-01-22T07:57:03.908Z,3.44
2018-01-22T07:57:29.405Z,3.34
2018-01-22T07:57:54.956Z,3.42
2018-01-22T07:58:20.429Z,3.36
2018-01-22T07:58:45.926Z,3.44
2018-01-22T07:59:11.471Z,3.44
2018-01-22T07:59:36.987Z,3.41
2018-01-22T08:00:02.492Z,3.42
2018-01-22T08:00:27.987Z,3.44
2018-01-22T08:00:53.496Z,3.45
2018-01-22T08:01:19.010Z,3.45
2018-01-22T08:01:44.516Z,3.5
2018-01-22T08:02:10.077Z,3.5
2018-01-22T08:02:35.579Z,3.47
2018-01-22T08:03:01.054Z,3.48
2018-01-22T08:03:26.509Z,3.42
2018-01-22T08:03:52.014Z,3.5
2018-01-22T08:04:17.510Z,3.45
2018-01-22T08:04:43.071Z,3.47
2018-01-22T08:05:08.576Z,3.53
2018-01-22T08:05:34.049Z,3.5
2018-01-22T08:05:59.559Z,3.5
2018-01-22T08:06:25.041Z,3.48
2018-01-22T08:07:28.638Z,3.55
2018-01-22T08:07:54.122Z,3.59
2018-01-22T08:08:19.662Z,3.53
2018-01-22T08:08:45.151Z,3.59
2018-01-22T08:09:10.656Z,3.59
2018-01-22T08:09:36.132Z,3.55
2018-01-22T08:10:01.595Z,3.6
2018-01-22T08:10:27.103Z,3.56
2018-01-22T08:10:52.539Z,3.59
2018-01-22T08:11:18.033Z,3.5
2018-01-22T08:11:43.493Z,3.5
2018-01-22T08:12:08.947Z,3.55
2018-01-22T08:12:34.439Z,3.56
2018-01-22T08:12:59.948Z,3.66
2018-01-22T08:13:25.532Z,3.58
2018-01-22T08:13:50.992Z,3.65
2018-01-22T08:14:16.454Z,3.51
2018-01-22T08:14:41.918Z,3.63
2018-01-22T08:15:07.438Z,3.58
2018-01-22T08:15:32.910Z,3.55
2018-01-22T08:15:58.429Z,3.69
2018-01-22T08:17:07.113Z,3.62
2018-01-22T08:17:32.614Z,3.63
2018-01-22T08:17:58.101Z,3.65
2018-01-22T08:18:23.539Z,3.6
2018-01-22T08:18:49.039Z,3.63
2018-01-22T08:19:14.564Z,3.59
2018-01-22T08:19:40.063Z,3.62
2018-01-22T08:20:05.574Z,3.59
2018-01-22T08:20:31.059Z,3.69
2018-01-22T08:21:19.372Z,3.6
2018-01-22T08:21:44.871Z,3.65
2018-01-22T08:22:10.402Z,3.65
2018-01-22T08:22:35.856Z,3.7
2018-01-22T08:23:01.356Z,3.6
2018-01-22T08:23:26.855Z,3.68
2018-01-22T08:23:52.334Z,3.76
2018-01-22T08:24:17.838Z,3.65
2018-01-22T08:24:43.375Z,3.76
2018-01-22T08:25:08.853Z,3.63
2018-01-22T08:25:34.333Z,3.65
2018-01-22T08:25:59.807Z,3.73
2018-01-22T08:26:48.112Z,3.65
2018-01-22T08:27:13.602Z,3.68
2018-01-22T08:27:39.103Z,3.65
2018-01-22T08:28:04.589Z,3.68
2018-01-22T08:28:30.079Z,3.74
2018-01-22T08:28:55.563Z,3.73
2018-01-22T08:29:21.082Z,3.78
2018-01-22T08:29:46.585Z,3.7
2018-01-22T08:30:12.128Z,3.74
2018-01-22T08:31:00.441Z,3.73
2018-01-22T08:31:25.932Z,3.76
2018-01-22T08:31:51.412Z,3.76
2018-01-22T08:32:16.915Z,3.76
2018-01-22T08:32:42.461Z,3.74
2018-01-22T08:33:07.947Z,3.78
2018-01-22T08:33:33.431Z,3.78
2018-01-22T08:33:58.951Z,3.73
2018-01-22T08:34:24.442Z,3.77
2018-01-22T08:34:49.922Z,3.83
2018-01-22T08:35:15.417Z,3.78
2018-01-22T08:35:40.882Z,3.78
2018-01-22T08:36:06.355Z,3.73
2018-01-22T08:36:31.876Z,3.78
2018-01-22T08:36:57.379Z,3.73
2018-01-22T08:37:22.954Z,3.76
2018-01-22T08:37:48.451Z,3.77
2018-01-22T08:38:57.141Z,3.76
2018-01-22T08:39:22.728Z,3.73
2018-01-22T08:39:48.216Z,3.84
2018-01-22T08:40:13.701Z,3.78
2018-01-22T08:40:39.242Z,3.86
2018-01-22T08:41:04.725Z,3.76
2018-01-22T08:41:30.210Z,3.77
2018-01-22T08:41:55.758Z,3.8
2018-01-22T08:42:54.285Z,3.83
2018-01-22T08:43:19.776Z,3.81
2018-01-22T08:43:45.264Z,3.83
2018-01-22T08:44:10.779Z,3.78
2018-01-22T08:44:36.274Z,3.81
2018-01-22T08:45:01.800Z,3.74
2018-01-22T08:45:27.312Z,3.81
2018-01-22T08:45:52.830Z,3.84
2018-01-22T08:46:18.326Z,3.87
2018-01-22T08:46:43.924Z,3.74
2018-01-22T08:47:09.379Z,3.86
2018-01-22T08:47:34.881Z,3.84
2018-01-22T08:48:00.401Z,3.81
2018-01-22T08:48:25.919Z,3.77
2018-01-22T08:49:19.351Z,3.87
2018-01-22T08:49:44.828Z,3.87
2018-01-22T08:50:10.312Z,3.87
2018-01-22T08:50:35.755Z,3.83
2018-01-22T08:51:01.296Z,3.8
2018-01-22T08:51:26.755Z,3.88
2018-01-22T08:51:52.345Z,3.86
2018-01-22T08:52:17.861Z,3.88
2018-01-22T08:52:43.357Z,3.84
2018-01-22T08:53:08.874Z,3.91
2018-01-22T08:53:34.389Z,3.88
2018-01-22T08:53:59.848Z,3.94
2018-01-22T08:54:25.302Z,3.95
2018-01-22T08:54:50.849Z,3.87
2018-01-22T08:55:16.329Z,3.87
2018-01-22T08:56:10.115Z,3.87
2018-01-22T08:56:35.657Z,3.95
2018-01-22T08:57:01.163Z,3.95
2018-01-22T08:57:26.664Z,3.99
2018-01-22T08:57:52.168Z,3.95
2018-01-22T08:58:17.655Z,3.95
2018-01-22T08:58:43.233Z,3.92
2018-01-22T08:59:08.731Z,3.96
2018-01-22T08:59:34.339Z,3.95
2018-01-22T08:59:59.871Z,3.95
2018-01-22T09:00:25.440Z,3.96
2018-01-22T09:00:51.042Z,3.98
2018-01-22T09:01:16.599Z,3.96
2018-01-22T09:01:42.105Z,3.95
2018-01-22T09:02:35.565Z,3.96
2018-01-22T09:03:01.082Z,3.94
2018-01-22T09:03:26.557Z,3.92
2018-01-22T09:03:52.034Z,4.02
2018-01-22T09:04:17.612Z,3.92
2018-01-22T09:04:43.074Z,4.04
2018-01-22T09:05:08.552Z,4.06
2018-01-22T09:05:34.087Z,4.05
2018-01-22T09:05:59.626Z,3.98
2018-01-22T09:06:25.063Z,4.08
2018-01-22T09:06:50.529Z,4.02
2018-01-22T09:07:16.037Z,3.99
2018-01-22T09:07:41.535Z,4.01
2018-01-22T09:08:07.015Z,3.96
2018-01-22T09:08:32.528Z,3.98
2018-01-22T09:08:58.033Z,4.01
2018-01-22T09:09:23.592Z,4.1
2018-01-22T09:10:17.132Z,4.02
2018-01-22T09:10:42.710Z,4.13
2018-01-22T09:11:08.212Z,4.1
2018-01-22T09:11:33.738Z,4.12
2018-01-22T09:11:59.363Z,4.12
2018-01-22T09:12:24.878Z,4.19
2018-01-22T09:12:50.378Z,4.1
2018-01-22T09:13:15.880Z,4.14
2018-01-22T09:13:41.345Z,4.14
2018-01-22T09:14:06.880Z,4.14
2018-01-22T09:14:32.380Z,4.14
2018-01-22T09:14:57.932Z,4.14
2018-01-22T09:16:06.523Z,4.16
2018-01-22T09:16:31.992Z,4.2
2018-01-22T09:16:57.537Z,4.16
2018-01-22T09:18:01.121Z,4.13
2018-01-22T09:18:26.633Z,4.17
2018-01-22T09:18:52.143Z,4.1
2018-01-22T09:19:17.765Z,4.19
2018-01-22T09:19:43.342Z,4.2
2018-01-22T09:20:08.889Z,4.17
2018-01-22T09:20:34.412Z,4.16
2018-01-22T09:20:59.886Z,4.23
2018-01-22T09:21:25.330Z,4.19
2018-01-22T09:21:50.816Z,4.23
2018-01-22T09:22:16.409Z,4.2
2018-01-22T09:22:41.930Z,4.26
2018-01-22T09:23:07.411Z,4.2
2018-01-22T09:24:11.034Z,4.26
2018-01-22T09:24:36.584Z,4.24
2018-01-22T09:25:02.089Z,4.28
2018-01-22T09:25:27.628Z,4.32
2018-01-22T09:25:53.173Z,4.31
2018-01-22T09:26:18.697Z,4.3
2018-01-22T09:26:44.182Z,4.23
2018-01-22T09:27:09.698Z,4.34
2018-01-22T09:27:35.190Z,4.32
2018-01-22T09:28:00.683Z,4.32
2018-01-22T09:28:26.156Z,4.31
2018-01-22T09:28:51.656Z,4.41
2018-01-22T09:29:17.075Z,4.32
2018-01-22T09:29:42.554Z,4.35
2018-01-22T09:30:08.055Z,4.37
2018-01-22T09:30:33.521Z,4.42
2018-01-22T09:31:37.111Z,4.37
2018-01-22T09:32:02.626Z,4.52
2018-01-22T09:32:28.096Z,4.48
2018-01-22T09:32:53.601Z,4.44
2018-01-22T09:33:19.077Z,4.45
2018-01-22T09:34:12.488Z,4.59
2018-01-22T09:34:38.018Z,4.59
2018-01-22T09:35:03.523Z,4.55
2018-01-22T09:35:29.006Z,4.56
2018-01-22T09:35:54.466Z,4.53
2018-01-22T09:36:19.914Z,4.58
2018-01-22T09:36:45.409Z,4.55
2018-01-22T09:37:10.943Z,4.58
2018-01-22T09:37:36.381Z,4.62
2018-01-22T09:38:01.875Z,4.66
2018-01-22T09:38:27.348Z,4.68
2018-01-22T09:38:52.893Z,4.66
2018-01-22T09:39:18.387Z,4.62
2018-01-22T09:39:43.876Z,4.63
2018-01-22T09:40:09.415Z,4.67
2018-01-22T09:40:34.890Z,4.67
2018-01-22T09:41:00.381Z,4.63
2018-01-22T09:41:25.863Z,4.6
2018-01-22T09:41:51.376Z,4.58
2018-01-22T09:42:16.849Z,4.62
2018-01-22T09:42:42.353Z,4.66
2018-01-22T09:43:07.824Z,4.59
2018-01-22T09:43:33.352Z,4.67
2018-01-22T09:43:58.828Z,4.77
2018-01-22T09:45:07.529Z,4.78
2018-01-22T09:45:33.016Z,4.77
2018-01-22T09:45:58.476Z,4.77
2018-01-22T09:46:24.005Z,4.73
2018-01-22T09:46:49.433Z,4.78
2018-01-22T09:47:14.929Z,4.74
2018-01-22T09:47:40.405Z,4.82
2018-01-22T09:48:05.866Z,4.87
2018-01-22T09:48:31.352Z,4.93
2018-01-22T09:48:56.819Z,4.93
2018-01-22T09:49:22.244Z,4.89
2018-01-22T09:49:47.743Z,4.99
2018-01-22T09:50:13.230Z,4.94
2018-01-22T09:50:38.694Z,4.97
2018-01-22T09:51:04.165Z,4.99
2018-01-22T09:51:29.654Z,4.94
2018-01-22T09:51:55.135Z,4.99
2018-01-22T09:52:20.607Z,4.99
2018-01-22T09:52:46.094Z,4.96
2018-01-22T09:53:11.504Z,5.02
2018-01-22T09:53:37.078Z,5.07
2018-01-22T09:54:02.586Z,5.08
2018-01-22T09:54:28.093Z,5.08
2018-01-22T09:54:53.586Z,5
2018-01-22T09:55:19.074Z,5.1
2018-01-22T09:55:44.535Z,5.02
2018-01-22T09:56:09.993Z,5.08
2018-01-22T09:56:35.435Z,5.07
2018-01-22T09:57:00.895Z,5.12
2018-01-22T09:57:26.402Z,5.08
2018-01-22T09:57:51.956Z,5.12
2018-01-22T09:58:17.426Z,5.08
2018-01-22T09:58:42.906Z,5.12
2018-01-22T09:59:36.389Z,5.07
2018-01-22T10:00:01.854Z,5.12
2018-01-22T10:00:27.328Z,5.08
2018-01-22T10:00:52.822Z,5.1
2018-01-22T10:01:18.272Z,5.14
2018-01-22T10:01:43.766Z,5.15
2018-01-22T10:02:09.235Z,5.08
2018-01-22T10:02:34.717Z,5.15
2018-01-22T10:03:00.212Z,5.1
2018-01-22T10:03:25.707Z,5.11
2018-01-22T10:03:51.196Z,5.11
2018-01-22T10:04:16.658Z,5.14
2018-01-22T10:04:42.159Z,5.14
2018-01-22T10:05:45.765Z,5.15
2018-01-22T10:06:11.239Z,5.11
2018-01-22T10:06:36.712Z,5.23
2018-01-22T10:07:02.239Z,5.11
2018-01-22T10:07:27.717Z,5.12
2018-01-22T10:07:53.160Z,5.1
2018-01-22T10:08:18.618Z,5.12
2018-01-22T10:08:44.097Z,5.14
2018-01-22T10:09:09.580Z,5.15
2018-01-22T10:09:35.069Z,5.1
2018-01-22T10:10:00.592Z,5.25
2018-01-22T10:10:26.040Z,5.17
2018-01-22T10:10:51.630Z,5.12
2018-01-22T10:11:17.091Z,5.15
2018-01-22T10:11:42.532Z,5.18
2018-01-22T10:12:08.022Z,5.18
2018-01-22T10:12:33.470Z,5.15
2018-01-22T10:13:31.995Z,5.18
2018-01-22T10:13:57.487Z,5.14
2018-01-22T10:14:22.997Z,5.15
2018-01-22T10:14:48.517Z,5.12
2018-01-22T10:15:13.981Z,5.2
2018-01-22T10:15:39.476Z,5.15
2018-01-22T10:16:04.982Z,5.12
2018-01-22T10:16:30.469Z,5.2
2018-01-22T10:16:55.974Z,5.18
2018-01-22T10:17:21.443Z,5.2
2018-01-22T10:17:46.916Z,5.2
2018-01-22T10:18:12.393Z,5.14
2018-01-22T10:19:05.841Z,5.15
2018-01-22T10:19:31.310Z,5.21
2018-01-22T10:19:56.791Z,5.17
2018-01-22T10:20:22.294Z,5.17
2018-01-22T10:20:47.724Z,5.12
2018-01-22T10:21:13.223Z,5.18
2018-01-22T10:21:38.684Z,5.2
2018-01-22T10:22:04.174Z,5.11
2018-01-22T10:22:29.656Z,5.26
2018-01-22T10:22:55.163Z,5.14
2018-01-22T10:23:20.648Z,5.17
2018-01-22T10:23:46.137Z,5.2
2018-01-22T10:24:11.586Z,5.17
2018-01-22T10:24:37.061Z,5.17
2018-01-22T10:25:02.542Z,5.17
2018-01-22T10:25:28.028Z,5.26
2018-01-22T10:25:53.513Z,5.2
2018-01-22T10:26:19.017Z,5.18
2018-01-22T10:26:44.487Z,5.23
2018-01-22T10:27:10.024Z,5.3
2018-01-22T10:27:35.505Z,5.26
2018-01-22T10:28:00.976Z,5.28
2018-01-22T10:28:26.456Z,5.32
2018-01-22T10:29:24.962Z,5.28
2018-01-22T10:29:50.445Z,5.23
2018-01-22T10:30:15.924Z,5.21
2018-01-22T10:30:41.410Z,5.33
2018-01-22T10:31:06.898Z,5.23
2018-01-22T10:31:32.369Z,5.38
2018-01-22T10:31:57.889Z,5.38
2018-01-22T10:32:46.214Z,5.36
2018-01-22T10:33:11.690Z,5.33
2018-01-22T10:33:37.152Z,5.35
2018-01-22T10:34:02.632Z,5.33
2018-01-22T10:34:28.197Z,5.3
2018-01-22T10:34:53.578Z,5.32
2018-01-22T10:35:19.081Z,5.43
2018-01-22T10:35:44.574Z,5.39
2018-01-22T10:36:10.054Z,5.43
2018-01-22T10:36:35.496Z,5.38
2018-01-22T10:37:01.019Z,5.38
2018-01-22T10:37:26.480Z,5.36
2018-01-22T10:37:51.949Z,5.38
2018-01-22T10:38:17.461Z,5.41
2018-01-22T10:38:43.108Z,5.38
2018-01-22T10:39:08.616Z,5.5
2018-01-22T10:39:34.160Z,5.46
2018-01-22T10:39:59.624Z,5.46
2018-01-22T10:40:25.148Z,5.46
2018-01-22T10:40:50.653Z,5.47
2018-01-22T10:41:16.135Z,5.41
2018-01-22T10:41:41.647Z,5.46
2018-01-22T10:42:07.147Z,5.46
2018-01-22T10:42:32.601Z,5.43
2018-01-22T10:42:58.085Z,5.44
2018-01-22T10:43:23.586Z,5.47
2018-01-22T10:43:49.079Z,5.48
2018-01-22T10:44:53.238Z,5.56
2018-01-22T10:45:18.711Z,5.48
2018-01-22T10:45:44.236Z,5.5
2018-01-22T10:46:09.655Z,5.53
2018-01-22T10:46:35.125Z,5.53
2018-01-22T10:47:00.624Z,5.57
2018-01-22T10:47:26.098Z,5.54
2018-01-22T10:47:51.584Z,5.57
2018-01-22T10:48:17.062Z,5.64
2018-01-22T10:48:42.601Z,5.54
2018-01-22T10:49:08.475Z,5.61
2018-01-22T10:50:17.174Z,5.59
2018-01-22T10:50:42.734Z,5.62
2018-01-22T10:51:08.175Z,5.57
2018-01-22T10:51:33.678Z,5.59
2018-01-22T10:51:59.226Z,5.61
2018-01-22T10:52:47.563Z,5.61
2018-01-22T10:53:13.026Z,5.65
2018-01-22T10:53:38.496Z,5.56
2018-01-22T10:54:03.961Z,5.61
2018-01-22T10:54:29.481Z,5.62
2018-01-22T10:54:54.969Z,5.65
2018-01-22T10:55:20.447Z,5.64
2018-01-22T10:55:45.967Z,5.68
2018-01-22T10:56:39.440Z,5.69
2018-01-22T10:57:04.894Z,5.66
2018-01-22T10:57:30.392Z,5.68
2018-01-22T10:57:55.876Z,5.62
2018-01-22T10:58:21.346Z,5.61
2018-01-22T10:58:46.846Z,5.71
2018-01-22T10:59:12.324Z,5.71
2018-01-22T10:59:37.805Z,5.68
2018-01-22T11:00:03.341Z,5.69
2018-01-22T11:00:28.834Z,5.69
2018-01-22T11:01:27.695Z,5.72
2018-01-22T11:01:53.237Z,5.65
2018-01-22T11:02:18.645Z,5.69
2018-01-22T11:02:44.099Z,5.69
2018-01-22T11:03:09.639Z,5.65
2018-01-22T11:03:35.117Z,5.62
2018-01-22T11:04:00.664Z,5.69
2018-01-22T11:04:26.141Z,5.75
2018-01-22T11:04:51.616Z,5.73
2018-01-22T11:05:17.121Z,5.72
2018-01-22T11:05:42.615Z,5.68
2018-01-22T11:06:08.100Z,5.72
2018-01-22T11:06:33.602Z,5.71
2018-01-22T11:06:59.026Z,5.76
2018-01-22T11:07:24.513Z,5.69
2018-01-22T11:07:50.014Z,5.71
2018-01-22T11:08:15.488Z,5.75
2018-01-22T11:08:40.954Z,5.73
2018-01-22T11:09:06.482Z,5.73
2018-01-22T11:09:31.976Z,5.76
2018-01-22T11:09:57.497Z,5.76
2018-01-22T11:10:22.996Z,5.73
2018-01-22T11:10:48.480Z,5.76
2018-01-22T11:11:13.934Z,5.76
2018-01-22T11:11:39.393Z,5.68
2018-01-22T11:12:04.862Z,5.71
2018-01-22T11:12:30.348Z,5.75
2018-01-22T11:12:55.809Z,5.79
2018-01-22T11:13:54.316Z,5.8
2018-01-22T11:14:19.784Z,5.79
2018-01-22T11:14:45.286Z,5.75
2018-01-22T11:15:10.775Z,5.79
2018-01-22T11:15:36.237Z,5.76
2018-01-22T11:16:01.723Z,5.75
2018-01-22T11:16:27.229Z,5.75
2018-01-22T11:16:52.689Z,5.75